Impacts TAF Board INFO
FOR SITUATIONAL AWARENESS. NOT TO BE USED FOR FLIGHT PLANNING PURPOSES.
IDs:

KMCO - Orlando Intl, FL, US

Issued at 2335 UTC 22 Jun 2018
Updated at 0035 UTC 23 Jun 2018
Potential Impact None Slight Moderate High
Time0026Z 23/01Z 23/02Z 23/03Z 23/04Z 23/05Z 23/06Z 23/07Z 23/08Z 23/09Z 23/10Z 23/11Z 23/12Z 23/13Z>>
Type OBS PRVL PRVL PRVL PRVL PRVL PRVL PRVL PRVL PRVL PRVL PRVL PRVL PRVL
VIS 10 >6 >6 >6 >6 >6 >6 >6 >6 >6 >6 >6 >6 >6
CIG 95 120 250 250 250 250 250 250 250 250 250 250 250 250
Cover BKN BKN BKN BKN BKN BKN BKN BKN BKN BKN BKN BKN BKN BKN
FltCat VFR VFR VFR VFR VFR VFR VFR VFR VFR VFR VFR VFR VFR VFR
WX -RA -RA -- -- -- -- -- -- -- -- -- -- -- --
WDir VRB 30 240 240 240 240 270 270 270 270 270 270 270 270
WSpd 3 7 5 5 5 5 3 3 3 3 3 3 3 3
WGst -- -- -- -- -- -- -- -- -- -- -- -- -- --

Raw TAF
KMCO 222335Z 2300/2406 03007KT P6SM -RA FEW035 BKN120 BKN250
  FM230200 24005KT P6SM FEW040 SCT120 BKN250
  FM230600 27003KT P6SM FEW120 BKN250
  FM231500 29006KT P6SM SCT030
  FM231900 27006KT P6SM VCTS SCT035CB BKN060
  TEMPO 2320/2322 3SM TSRA BKN030CB
  FM240000 20004KT P6SM SCT035 BKN080 BKN250


Raw METAR
KMCO 230026Z VRB03KT 10SM -RA FEW011 SCT050 BKN095 BKN250 25/23 A2997 RMK AO2 LTG DSNT SE AND S TSE25 TS MOV E CB DSNT NE-SE MOV E P0000 T02500233
KMCO 222353Z 11009KT 10SM -TSRA SCT047CB BKN100 BKN250 25/23 A2996 RMK AO2 LTG DSNT N AND NE TSE08B41 SLP145 OCNL LTGICCG NE TS NE MOV E P0001 60049 T02500233 10339 20233 51017
KMCO 222342Z 10008KT 10SM -TSRA FEW043CB BKN100 BKN250 26/23 A2997 RMK AO2 LTG DSNT N TSE08B41 OCNL LTGICCG N TS N MOV E P0001 T02560233
KMCO 222309Z 03007KT 10SM -RA FEW040 SCT090 BKN120 BKN250 25/23 A2995 RMK AO2 LTG DSNT ALQDS TSE08 TS MOV E CB DSNT NE MOV E P0000 T02500233
KMCO 222253Z 03009KT 10SM -TSRA FEW040CB SCT090 BKN120 BKN250 25/23 A2995 RMK AO2 LTG DSNT N-SE TSE12B14 SLP140 OCNL LTGIC NE TS NE MOV E P0002 T02500233
KMCO 222153Z 06008KT 8SM -TSRA FEW011 BKN034CB BKN100 24/23 A2995 RMK AO2 PK WND 26033/2107 LTG DSNT ALQDS RAB08 SLP140 FRQ LTGICCCCG N-E TS N-E MOV E P0046 T02440233
KMCO 222137Z 00000KT 4SM +TSRA BR FEW011 BKN030CB OVC060 23/22 A2995 RMK AO2 PK WND 26033/2107 LTG DSNT ALQDS RAB08 VIS NE 2 CONS LTGICCG N-E-S TS N-E-S MOV E P0040 T02330222

METAR Board
Radar Display
Forecast Discussion

FOR SITUATIONAL AWARENESS. NOT TO BE USED FOR FLIGHT PLANNING PURPOSES.